Time;durP1;ratioP1;P1;durP2;ratioP2;P2;SDS_P1;SDS_P2;PMS_P1;PMS_P2;Temp;Humidity;BMP_temperature;BMP_pressure;BME280_temperature;BME280_humidity;BME280_pressure;Samples;Min_cycle;Max_cycle;Signal;HPM_P1;HPM_P2
2021/01/09 11:18:13;;;;;;;1.88;1.30;;;;;;;;;;5141223;27;20406;-48
2021/01/09 11:20:40;;;;;;;4.88;1.40;;;;;;;;;;5120693;28;20043;-47
2021/01/09 11:23:06;;;;;;;2.15;0.90;;;;;;;;;;5084940;27;20495;-46
2021/01/09 11:25:32;;;;;;;2.67;1.40;;;;;;;;;;4954583;28;20191;-46
2021/01/09 11:27:58;;;;;;;3.92;1.55;;;;;;;;;;4996068;28;65085;-46
2021/01/09 11:30:25;;;;;;;4.75;1.48;;;;;;;;;;5041400;28;20094;-47
2021/01/09 11:32:51;;;;;;;4.53;1.40;;;;;;;;;;5061951;28;20044;-48
2021/01/09 11:35:17;;;;;;;4.85;1.83;;;;;;;;;;5067345;28;20041;-48
2021/01/09 11:37:43;;;;;;;3.53;1.48;;;;;;;;;;5067589;28;20501;-48
2021/01/09 14:41:19;;;;;;;6.32;0.68;;;;;;;;;;5150632;27;20385;-47
2021/01/09 14:43:45;;;;;;;3.72;0.90;;;;;;;;;;5151083;27;20043;-47
2021/01/09 14:46:14;;;;;;;2.05;0.55;;;;;;;;;;5147616;27;20256;-48
2021/01/09 14:48:41;;;;;;;4.72;0.85;;;;;;;;;;5143224;27;20040;-48
2021/01/09 14:51:07;;;;;;;2.92;0.60;;;;;;;;;;5128598;28;20096;-48
2021/01/09 14:53:33;;;;;;;2.58;0.52;;;;;;;;;;5122745;27;20123;-47
2021/01/09 14:55:59;;;;;;;2.78;0.52;;;;;;;;;;5125603;27;20164;-49
2021/01/09 14:58:25;;;;;;;2.05;0.73;;;;;;;;;;5132540;27;20063;-48
2021/01/09 15:00:52;;;;;;;2.53;0.90;;;;;;;;;;5135124;27;20122;-48
2021/01/09 15:03:18;;;;;;;4.13;0.82;;;;;;;;;;5140772;27;20046;-48
2021/01/09 15:05:44;;;;;;;4.22;0.85;;;;;;;;;;5130320;27;20042;-47
2021/01/09 15:08:13;;;;;;;2.50;0.95;;;;;;;;;;5143931;27;20062;-48
2021/01/09 15:10:40;;;;;;;2.33;1.00;;;;;;;;;;5134537;27;20047;-48
2021/01/09 15:13:06;;;;;;;4.22;0.73;;;;;;;;;;5136271;27;20075;-49
2021/01/09 15:15:32;;;;;;;2.70;0.60;;;;;;;;;;5141087;27;20058;-50
2021/01/09 15:22:32;;;;;;;3.55;1.27;;;;;;;;;;5155364;27;21172;-67
2021/01/09 15:24:59;;;;;;;5.68;1.23;;;;;;;;;;5170212;27;20050;-63
2021/01/09 15:27:26;;;;;;;3.83;0.98;;;;;;;;;;5155752;27;20039;-64
2021/01/09 15:29:52;;;;;;;4.45;2.00;;;;;;;;;;5128758;27;20046;-63
2021/01/09 15:32:18;;;;;;;6.63;2.80;;;;;;;;;;5111795;28;20508;-63
2021/01/09 15:34:44;;;;;;;8.35;3.85;;;;;;;;;;5123788;27;20048;-63
2021/01/09 15:37:10;;;;;;;7.90;2.70;;;;;;;;;;5104791;27;20125;-64
2021/01/09 15:39:36;;;;;;;3.85;1.90;;;;;;;;;;5071249;28;20033;-64
2021/01/09 15:42:02;;;;;;;6.03;3.80;;;;;;;;;;5065020;28;20453;-63
2021/01/09 15:44:29;;;;;;;8.95;4.65;;;;;;;;;;5063716;28;20083;-63
2021/01/09 15:46:55;;;;;;;8.07;4.15;;;;;;;;;;5060745;28;20032;-63
2021/01/09 15:49:22;;;;;;;6.78;4.57;;;;;;;;;;5046905;28;20040;-63
2021/01/09 15:51:52;;;;;;;6.55;3.05;;;;;;;;;;5069662;27;57020;-64
2021/01/09 15:54:19;;;;;;;6.32;2.25;;;;;;;;;;5063785;27;20402;-63
2021/01/09 15:56:46;;;;;;;4.50;1.95;;;;;;;;;;5050069;27;20044;-63
2021/01/09 15:59:12;;;;;;;19.58;17.27;;;;;;;;;;5046336;28;20072;-62
2021/01/09 16:01:39;;;;;;;26.88;18.17;;;;;;;;;;5037628;28;20056;-63
2021/01/09 16:04:05;;;;;;;14.50;11.45;;;;;;;;;;5045873;28;20035;-63
2021/01/09 16:06:33;;;;;;;8.05;4.13;;;;;;;;;;5045030;28;20463;-63
2021/01/09 16:09:00;;;;;;;30.95;26.27;;;;;;;;;;5066408;27;20044;-63
2021/01/09 16:11:26;;;;;;;84.82;70.95;;;;;;;;;;5080047;27;20139;-64
2021/01/09 16:13:53;;;;;;;63.70;51.42;;;;;;;;;;5085143;28;20056;-64
2021/01/09 16:16:25;;;;;;;17.75;11.43;;;;;;;;;;5084927;28;20090;-64
2021/01/09 16:18:51;;;;;;;;;;;;;;;;;;5085012;27;20055;-63
2021/01/09 16:21:17;;;;;;;12.15;5.70;;;;;;;;;;5085891;28;19943;-63
2021/01/09 16:23:44;;;;;;;10.18;4.38;;;;;;;;;;5084094;28;20494;-63
2021/01/09 16:26:12;;;;;;;5.88;4.38;;;;;;;;;;5084230;28;20665;-63
2021/01/09 16:28:39;;;;;;;8.43;3.50;;;;;;;;;;5083150;27;20048;-63
2021/01/09 16:31:05;;;;;;;8.85;3.65;;;;;;;;;;5083782;28;20127;-63
2021/01/09 16:33:31;;;;;;;9.98;2.03;;;;;;;;;;5073855;28;20406;-63
2021/01/09 16:35:57;;;;;;;9.90;2.60;;;;;;;;;;5071613;28;20040;-63
2021/01/09 16:38:23;;;;;;;8.52;2.75;;;;;;;;;;5066284;28;20040;-63
2021/01/09 16:40:50;;;;;;;7.22;1.50;;;;;;;;;;5071345;28;20048;-63
2021/01/09 16:43:17;;;;;;;10.80;4.38;;;;;;;;;;5072743;28;20052;-63
2021/01/09 16:45:44;;;;;;;3.80;1.90;;;;;;;;;;5063536;28;20073;-63
2021/01/09 16:48:10;;;;;;;9.02;4.30;;;;;;;;;;5056489;28;20049;-63
2021/01/09 16:50:36;;;;;;;9.13;4.85;;;;;;;;;;5051343;28;20059;-63
2021/01/09 16:53:03;;;;;;;8.55;5.22;;;;;;;;;;5069739;28;20048;-62
2021/01/09 16:55:29;;;;;;;8.95;4.93;;;;;;;;;;5071045;28;20052;-63
2021/01/09 16:57:58;;;;;;;10.68;3.17;;;;;;;;;;5070931;28;20109;-62
2021/01/09 17:00:24;;;;;;;10.15;2.35;;;;;;;;;;5071279;28;20083;-63
2021/01/09 17:02:50;;;;;;;10.98;3.75;;;;;;;;;;5070455;28;20159;-63
2021/01/09 17:05:17;;;;;;;6.80;3.25;;;;;;;;;;5071900;28;20409;-63
2021/01/09 17:07:43;;;;;;;10.63;4.10;;;;;;;;;;5070762;28;20043;-63
2021/01/09 17:10:10;;;;;;;7.40;3.13;;;;;;;;;;5070617;28;20054;-63
2021/01/09 17:12:36;;;;;;;13.00;9.20;;;;;;;;;;5071280;28;20041;-64
2021/01/09 17:15:03;;;;;;;10.57;5.28;;;;;;;;;;5070729;28;20124;-63
2021/01/09 17:17:29;;;;;;;9.10;3.47;;;;;;;;;;5070447;28;20085;-63
2021/01/09 17:19:55;;;;;;;10.25;5.30;;;;;;;;;;5071756;28;20391;-63
2021/01/09 17:22:21;;;;;;;7.43;3.47;;;;;;;;;;5054136;28;20037;-63
2021/01/09 17:24:47;;;;;;;8.50;3.58;;;;;;;;;;5065500;28;20048;-63
2021/01/09 17:27:14;;;;;;;8.30;3.28;;;;;;;;;;5070511;28;20491;-63
2021/01/09 17:29:40;;;;;;;9.73;5.13;;;;;;;;;;5069948;28;20052;-63
2021/01/09 17:32:07;;;;;;;9.30;3.50;;;;;;;;;;5071027;28;20044;-63
2021/01/09 17:34:33;;;;;;;14.85;4.15;;;;;;;;;;5070568;28;20162;-63
2021/01/09 17:37:01;;;;;;;5.07;2.50;;;;;;;;;;5070114;28;20040;-63
2021/01/09 17:39:28;;;;;;;7.00;3.05;;;;;;;;;;5065675;28;20056;-62
2021/01/09 17:41:54;;;;;;;11.23;2.63;;;;;;;;;;5070380;28;20093;-62
2021/01/09 17:44:20;;;;;;;12.68;3.58;;;;;;;;;;5069005;28;20052;-63
2021/01/09 17:46:47;;;;;;;10.45;3.15;;;;;;;;;;5069414;28;20037;-63
2021/01/09 17:49:13;;;;;;;6.80;2.40;;;;;;;;;;5071177;27;20555;-62
2021/01/09 17:51:39;;;;;;;5.88;2.47;;;;;;;;;;5068132;28;20119;-62
2021/01/09 17:54:05;;;;;;;9.20;2.78;;;;;;;;;;5070805;28;20056;-62
2021/01/09 17:56:32;;;;;;;12.05;2.95;;;;;;;;;;5069497;28;20051;-63
2021/01/09 17:58:59;;;;;;;12.43;3.40;;;;;;;;;;5069448;28;20063;-62
2021/01/09 18:01:25;;;;;;;5.95;2.95;;;;;;;;;;5069870;28;20102;-62
2021/01/09 18:03:52;;;;;;;7.53;2.50;;;;;;;;;;5069714;28;20134;-63
2021/01/09 18:06:18;;;;;;;12.23;3.67;;;;;;;;;;5069897;28;20044;-62
2021/01/09 18:08:45;;;;;;;7.30;3.60;;;;;;;;;;5069465;28;20103;-62
2021/01/09 18:11:11;;;;;;;11.02;5.07;;;;;;;;;;5069792;28;20426;-62
2021/01/09 18:13:37;;;;;;;8.13;4.03;;;;;;;;;;5068963;28;20455;-62
2021/01/09 18:16:03;;;;;;;12.38;4.80;;;;;;;;;;5069246;28;20049;-62
2021/01/09 18:18:29;;;;;;;8.35;4.00;;;;;;;;;;5069918;28;20032;-64
2021/01/09 18:20:55;;;;;;;19.92;7.63;;;;;;;;;;5069338;28;20055;-63
2021/01/09 18:23:21;;;;;;;13.00;4.85;;;;;;;;;;5069968;28;20044;-62
2021/01/09 18:25:47;;;;;;;15.38;6.93;;;;;;;;;;5069802;28;20044;-63
2021/01/09 18:28:14;;;;;;;16.65;7.13;;;;;;;;;;5068122;28;20041;-62
2021/01/09 18:30:40;;;;;;;12.75;6.93;;;;;;;;;;5066857;28;20057;-63
2021/01/09 18:33:06;;;;;;;11.52;5.55;;;;;;;;;;5068655;28;20101;-63
2021/01/09 18:35:33;;;;;;;12.45;6.53;;;;;;;;;;5069385;28;20139;-62
2021/01/09 18:37:59;;;;;;;12.82;5.20;;;;;;;;;;5068784;28;20059;-62
2021/01/09 18:40:26;;;;;;;12.52;6.10;;;;;;;;;;5070491;28;20044;-63
2021/01/09 18:42:52;;;;;;;10.27;5.50;;;;;;;;;;5070113;28;20131;-62
2021/01/09 18:45:19;;;;;;;14.90;6.80;;;;;;;;;;5071994;28;20033;-62
2021/01/09 18:47:45;;;;;;;11.95;5.95;;;;;;;;;;5070131;28;20044;-62
2021/01/09 18:50:11;;;;;;;14.02;5.15;;;;;;;;;;5071508;28;20093;-62
2021/01/09 18:52:38;;;;;;;14.88;5.15;;;;;;;;;;5071238;28;20052;-62
2021/01/09 18:55:04;;;;;;;8.70;4.50;;;;;;;;;;5071538;28;20090;-62
2021/01/09 18:57:31;;;;;;;13.60;4.65;;;;;;;;;;5071164;28;20111;-63
2021/01/09 18:59:57;;;;;;;12.18;5.32;;;;;;;;;;5071669;28;20037;-63
2021/01/09 19:02:23;;;;;;;12.02;4.05;;;;;;;;;;5070236;28;20045;-62
2021/01/09 19:04:49;;;;;;;13.02;4.53;;;;;;;;;;5071721;28;20071;-62
2021/01/09 19:07:15;;;;;;;7.45;3.47;;;;;;;;;;5071404;28;20037;-62
2021/01/09 19:09:41;;;;;;;8.65;4.40;;;;;;;;;;5071308;28;20111;-63
2021/01/09 19:12:07;;;;;;;10.30;4.03;;;;;;;;;;5071557;28;20127;-63
2021/01/09 19:14:33;;;;;;;10.05;4.68;;;;;;;;;;5071849;28;20055;-63
2021/01/09 19:17:01;;;;;;;10.52;4.25;;;;;;;;;;5071085;28;20040;-63
2021/01/09 19:19:27;;;;;;;11.60;3.60;;;;;;;;;;5071843;28;20036;-62
2021/01/09 19:21:53;;;;;;;8.63;4.35;;;;;;;;;;5071551;28;20041;-63
2021/01/09 19:24:19;;;;;;;12.68;7.13;;;;;;;;;;5071396;28;20041;-63
2021/01/09 19:26:49;;;;;;;14.18;7.03;;;;;;;;;;5071503;28;20097;-63
2021/01/09 19:29:15;;;;;;;11.52;6.18;;;;;;;;;;5065554;28;20041;-63
2021/01/09 19:31:41;;;;;;;13.25;7.85;;;;;;;;;;5068604;28;20064;-63
2021/01/09 19:34:08;;;;;;;12.32;5.63;;;;;;;;;;5069819;28;20041;-63
2021/01/09 19:36:34;;;;;;;13.65;7.10;;;;;;;;;;5069079;28;20049;-63
2021/01/09 19:39:00;;;;;;;24.13;11.43;;;;;;;;;;5070207;28;20028;-63
2021/01/09 19:41:26;;;;;;;23.15;14.30;;;;;;;;;;5070090;28;20151;-63
2021/01/09 19:43:52;;;;;;;16.25;9.38;;;;;;;;;;5068992;28;20044;-62
2021/01/09 19:46:18;;;;;;;17.67;8.10;;;;;;;;;;5068932;28;20097;-62
2021/01/09 19:48:45;;;;;;;18.33;9.00;;;;;;;;;;5049265;28;20037;-62
2021/01/09 19:51:11;;;;;;;14.57;6.75;;;;;;;;;;5067505;28;20053;-62
2021/01/09 19:53:37;;;;;;;20.27;8.23;;;;;;;;;;5061669;28;20048;-62
2021/01/09 19:56:03;;;;;;;15.90;9.07;;;;;;;;;;5069295;28;20056;-63
2021/01/09 19:58:29;;;;;;;17.67;11.63;;;;;;;;;;5068592;28;20154;-63
2021/01/09 20:00:56;;;;;;;13.13;6.55;;;;;;;;;;5069455;28;20044;-63
2021/01/09 20:03:22;;;;;;;14.32;6.78;;;;;;;;;;5069338;28;20036;-62
2021/01/09 20:05:49;;;;;;;7.65;6.22;;;;;;;;;;5068959;28;20037;-63
2021/01/09 20:08:15;;;;;;;20.80;13.15;;;;;;;;;;5071313;28;20040;-63
2021/01/09 20:10:42;;;;;;;18.13;11.07;;;;;;;;;;5072371;28;20449;-62
2021/01/09 20:13:10;;;;;;;16.08;10.23;;;;;;;;;;5073446;28;20048;-62
2021/01/09 20:15:36;;;;;;;14.88;8.85;;;;;;;;;;5072527;28;20486;-63
2021/01/09 20:18:02;;;;;;;13.00;6.40;;;;;;;;;;5073023;28;20414;-63
2021/01/09 20:20:28;;;;;;;11.85;4.50;;;;;;;;;;5072575;28;20083;-63
2021/01/09 20:22:54;;;;;;;9.40;5.03;;;;;;;;;;5072936;28;20120;-63
2021/01/09 20:25:21;;;;;;;12.23;5.32;;;;;;;;;;5072846;28;20040;-63
2021/01/09 20:27:47;;;;;;;9.32;5.45;;;;;;;;;;5067413;28;20039;-62
2021/01/09 20:30:14;;;;;;;12.15;5.70;;;;;;;;;;5068778;28;20105;-63
2021/01/09 20:32:40;;;;;;;6.78;4.35;;;;;;;;;;5071819;28;20398;-62
2021/01/09 20:35:07;;;;;;;9.70;3.80;;;;;;;;;;5072649;28;20391;-63
2021/01/09 20:37:33;;;;;;;11.23;4.93;;;;;;;;;;5072494;28;20410;-63
2021/01/09 20:39:59;;;;;;;7.05;4.55;;;;;;;;;;5072997;28;20391;-63
2021/01/09 20:42:25;;;;;;;8.15;3.80;;;;;;;;;;5070626;28;20403;-62
2021/01/09 20:44:51;;;;;;;10.30;4.60;;;;;;;;;;5071453;28;20045;-62
2021/01/09 20:47:17;;;;;;;6.15;3.80;;;;;;;;;;5072445;28;20110;-63
2021/01/09 20:49:43;;;;;;;9.77;4.38;;;;;;;;;;5072307;28;20120;-62
2021/01/09 20:52:12;;;;;;;6.90;4.32;;;;;;;;;;5067705;28;20136;-62
2021/01/09 20:54:38;;;;;;;7.03;4.15;;;;;;;;;;5072325;28;20502;-63
2021/01/09 20:57:05;;;;;;;10.48;4.53;;;;;;;;;;5072351;28;20052;-63
2021/01/09 20:59:31;;;;;;;11.25;4.07;;;;;;;;;;5072084;28;20048;-63
2021/01/09 21:01:57;;;;;;;6.00;3.47;;;;;;;;;;5072588;28;20044;-63
2021/01/09 21:04:23;;;;;;;8.30;3.80;;;;;;;;;;5072732;28;20082;-63
2021/01/09 21:06:52;;;;;;;8.75;4.07;;;;;;;;;;5075677;28;20052;-63
2021/01/09 21:09:18;;;;;;;7.70;4.03;;;;;;;;;;5084472;28;20037;-63
2021/01/09 21:11:44;;;;;;;6.10;3.70;;;;;;;;;;5071477;28;20051;-63
2021/01/09 21:14:13;;;;;;;9.02;3.45;;;;;;;;;;5072720;28;20071;-62
2021/01/09 21:16:43;;;;;;;7.53;4.50;;;;;;;;;;5071092;28;20059;-63
2021/01/09 21:19:09;;;;;;;10.73;3.88;;;;;;;;;;5072337;28;20047;-63
2021/01/09 21:21:35;;;;;;;10.35;4.40;;;;;;;;;;5071059;28;20063;-63
2021/01/09 21:24:01;;;;;;;9.10;4.03;;;;;;;;;;5072348;28;20045;-63
2021/01/09 21:26:27;;;;;;;8.88;4.30;;;;;;;;;;5071221;28;20040;-62
2021/01/09 21:28:53;;;;;;;8.68;4.03;;;;;;;;;;5071454;28;20041;-63
2021/01/09 21:31:20;;;;;;;5.45;3.75;;;;;;;;;;5071103;28;20056;-62
2021/01/09 21:33:46;;;;;;;13.30;4.80;;;;;;;;;;5069573;28;20497;-62
2021/01/09 21:36:13;;;;;;;12.75;9.68;;;;;;;;;;5071854;28;20486;-63
2021/01/09 21:38:39;;;;;;;11.57;7.60;;;;;;;;;;5084285;28;20040;-63
2021/01/09 21:41:05;;;;;;;11.65;9.38;;;;;;;;;;5071817;28;20052;-63
2021/01/09 21:43:31;;;;;;;12.48;6.38;;;;;;;;;;5071400;28;20033;-63
2021/01/09 21:45:57;;;;;;;10.85;6.50;;;;;;;;;;5071629;28;20055;-63
2021/01/09 21:48:27;;;;;;;7.03;4.65;;;;;;;;;;5071615;28;20036;-63
2021/01/09 21:50:53;;;;;;;13.25;8.27;;;;;;;;;;5071479;28;20097;-62
2021/01/09 21:53:19;;;;;;;8.98;6.47;;;;;;;;;;5058422;28;20044;-63
2021/01/09 21:55:45;;;;;;;18.88;7.45;;;;;;;;;;5069053;28;20037;-63
2021/01/09 21:58:11;;;;;;;19.50;9.35;;;;;;;;;;5070718;28;20089;-63
2021/01/09 22:00:37;;;;;;;32.15;12.10;;;;;;;;;;5070295;28;20478;-63
2021/01/09 22:03:04;;;;;;;30.80;13.70;;;;;;;;;;5071047;28;20505;-63
2021/01/09 22:05:30;;;;;;;11.80;5.65;;;;;;;;;;5070396;28;20554;-63
2021/01/09 22:07:56;;;;;;;14.90;7.13;;;;;;;;;;5084670;28;20032;-63
2021/01/09 22:10:22;;;;;;;10.57;4.85;;;;;;;;;;5091554;28;20036;-63
2021/01/09 22:12:49;;;;;;;5.43;3.13;;;;;;;;;;5075796;28;20044;-63
2021/01/09 22:15:15;;;;;;;5.03;2.58;;;;;;;;;;5070917;28;20178;-63
2021/01/09 22:17:41;;;;;;;4.88;2.78;;;;;;;;;;5070182;28;20067;-63
2021/01/09 22:20:11;;;;;;;3.97;2.55;;;;;;;;;;5070728;28;20082;-63
2021/01/09 22:22:37;;;;;;;4.22;2.28;;;;;;;;;;5069690;28;20049;-63
2021/01/09 22:25:04;;;;;;;4.45;1.90;;;;;;;;;;5082804;28;20044;-62
2021/01/09 22:27:30;;;;;;;3.90;2.00;;;;;;;;;;5092524;28;20036;-63
2021/01/09 22:29:56;;;;;;;2.33;1.52;;;;;;;;;;5074561;28;20068;-63
2021/01/09 22:32:23;;;;;;;5.13;1.92;;;;;;;;;;5072070;28;20056;-63
2021/01/09 22:34:49;;;;;;;5.45;1.83;;;;;;;;;;5076404;28;20040;-63
2021/01/09 22:37:15;;;;;;;6.75;2.13;;;;;;;;;;5070328;28;20055;-63
2021/01/09 22:39:41;;;;;;;5.45;1.80;;;;;;;;;;5071513;28;20519;-63
2021/01/09 22:42:07;;;;;;;3.40;1.77;;;;;;;;;;5072009;28;20041;-62
2021/01/09 22:44:33;;;;;;;7.80;1.80;;;;;;;;;;5072310;28;20534;-63
2021/01/09 22:47:00;;;;;;;7.75;2.00;;;;;;;;;;5072110;28;20036;-62
2021/01/09 22:49:29;;;;;;;5.82;2.35;;;;;;;;;;5071871;28;20391;-63
2021/01/09 22:51:56;;;;;;;5.43;2.33;;;;;;;;;;5082910;28;20043;-62
2021/01/09 22:54:22;;;;;;;4.72;1.98;;;;;;;;;;5072048;28;20135;-63
2021/01/09 22:56:51;;;;;;;7.68;2.13;;;;;;;;;;5070266;28;20036;-62
2021/01/09 22:59:17;;;;;;;7.35;2.50;;;;;;;;;;5072010;28;20499;-62
2021/01/09 23:01:43;;;;;;;6.15;2.75;;;;;;;;;;5071967;28;20093;-62
2021/01/09 23:04:10;;;;;;;6.15;2.50;;;;;;;;;;5071962;28;20040;-62
2021/01/09 23:06:36;;;;;;;8.95;3.00;;;;;;;;;;5071982;28;20153;-62
2021/01/09 23:09:02;;;;;;;6.85;3.80;;;;;;;;;;5072135;28;20064;-63
2021/01/09 23:11:28;;;;;;;5.47;3.10;;;;;;;;;;5070676;28;20056;-62
2021/01/09 23:13:55;;;;;;;7.97;3.08;;;;;;;;;;5070818;28;20044;-62
2021/01/09 23:16:21;;;;;;;10.18;2.58;;;;;;;;;;5071338;28;20046;-62
2021/01/09 23:18:47;;;;;;;9.00;2.95;;;;;;;;;;5071732;28;20044;-63
2021/01/09 23:21:14;;;;;;;19.25;6.38;;;;;;;;;;5071595;28;20047;-63
2021/01/09 23:23:41;;;;;;;10.73;3.05;;;;;;;;;;5072203;28;20459;-62
2021/01/09 23:26:07;;;;;;;14.43;4.63;;;;;;;;;;5071565;28;20517;-63
2021/01/09 23:28:34;;;;;;;10.38;3.03;;;;;;;;;;5071712;28;20040;-63
2021/01/09 23:31:00;;;;;;;10.18;3.25;;;;;;;;;;5071261;28;20052;-63
2021/01/09 23:33:26;;;;;;;7.68;3.17;;;;;;;;;;5071605;28;20052;-62
2021/01/09 23:35:53;;;;;;;10.40;3.15;;;;;;;;;;5071792;28;20037;-62
2021/01/09 23:38:19;;;;;;;14.82;3.70;;;;;;;;;;5071317;28;20044;-63
2021/01/09 23:40:45;;;;;;;12.23;3.58;;;;;;;;;;5071757;28;20048;-63
2021/01/09 23:43:12;;;;;;;10.13;2.95;;;;;;;;;;5073540;28;20068;-63
2021/01/09 23:45:38;;;;;;;13.55;3.50;;;;;;;;;;5075581;28;20040;-63
2021/01/09 23:48:04;;;;;;;11.30;3.45;;;;;;;;;;5075548;28;20132;-63
2021/01/09 23:50:30;;;;;;;8.85;3.42;;;;;;;;;;5075496;28;20487;-63
2021/01/09 23:52:56;;;;;;;11.75;4.18;;;;;;;;;;5075416;28;20067;-63
2021/01/09 23:55:22;;;;;;;10.52;3.17;;;;;;;;;;5075183;28;20122;-63
2021/01/09 23:57:49;;;;;;;8.38;3.40;;;;;;;;;;5075160;28;20060;-63
